SHMÚ vydal hydrologické výstrahy na   Povodeň z trvalého dažďa Zobraziť výstrahy

METAR

Letisková meteorologická správa METAR

Meteorologické informácie z ďalších profesionálnych meteorologických staníc SHMÚ zobrazené v tvare zodpovedajúcom pravidlám kódovania správ METAR sú uvedené v položke „METSYN

Informácie o správe METAR

28.07.2017 - 14:30 UTC

METAR LZIB 281430Z 28012KT 240V320 CAVOK 27/12 Q1011 NOSIG=
METAR LZKZ 281430Z VRB02KT 9999 -RA FEW025 SCT051 BKN070 19/16 Q1011
NOSIG=
METAR LZPP 281430Z 28012KT 250V330 CAVOK 28/12 Q1010=
METAR LZSL 281430Z 26009KT 9999 -SHRA FEW040CB SCT050 25/13 Q1011=
METAR LZTT 281430Z 10007KT 040V160 9999 VCSH FEW020 BKN040 20/14
Q1012 TEMPO SHRA=
METAR LZZI 281430Z 24008KT 9999 FEW050 BKN096 21/14 Q1011=

28.07.2017 - 14:00 UTC

METAR LZIB 281400Z 29018KT CAVOK 27/11 Q1011 NOSIG=
METAR LZKZ 281400Z 28005KT 9999 -RA FEW040 SCT055 BKN080 18/17 Q1011
NOSIG=
METAR LZPP 281400Z 11003KT 030V160 CAVOK 25/18 Q1010=
METAR LZSL 281400Z 27010KT 240V300 9999 FEW046 26/12 Q1010=
METAR LZTT 281400Z 26009KT 210V300 9999 FEW018 BKN050 22/11 Q1011
TEMPO SHRA=
METAR LZZI 281400Z 24010KT 9999 FEW050 22/14 Q1011=

28.07.2017 - 14:00 UTC

METAR LZMC 281400Z 29012G24KT CAVOK 28/07 Q1012=
METAR LZPW 281400Z 19006KT 9999 -RA NSC 20/16 Q1011=

skok na menu ↑


skok na začiatok stránky ↑